Time;durP1;ratioP1;P1;durP2;ratioP2;P2;SDS_P1;SDS_P2;PMS_P1;PMS_P2;Temp;Humidity;BMP_temperature;BMP_pressure;BME280_temperature;BME280_humidity;BME280_pressure;Samples;Min_cycle;Max_cycle;Signal;HPM_P1;HPM_P2
2021/01/06 00:02:23;;;;;;;51.53;34.63;;;3.40;99.90;;;;;;5123116;27;20457;-78
2021/01/06 00:04:50;;;;;;;48.20;35.63;;;3.40;99.90;;;;;;5119015;27;20453;-80
2021/01/06 00:07:16;;;;;;;47.20;33.00;;;3.30;99.90;;;;;;5125959;27;20456;-79
2021/01/06 00:09:42;;;;;;;42.53;32.10;;;3.30;99.90;;;;;;5120768;27;20951;-78
2021/01/06 00:12:09;;;;;;;47.70;33.63;;;3.30;99.90;;;;;;5122277;27;20756;-79
2021/01/06 00:14:37;;;;;;;43.23;33.13;;;3.20;99.90;;;;;;5122984;27;20479;-78
2021/01/06 00:17:03;;;;;;;45.97;34.37;;;3.30;99.90;;;;;;5129426;27;20465;-75
2021/01/06 00:19:30;;;;;;;43.30;33.77;;;3.30;99.90;;;;;;5123393;27;20962;-76
2021/01/06 00:21:57;;;;;;;52.97;35.37;;;3.40;99.90;;;;;;5120045;27;20975;-76
2021/01/06 00:24:23;;;;;;;50.43;36.90;;;3.30;99.90;;;;;;5120541;27;20503;-76
2021/01/06 00:26:49;;;;;;;45.90;35.47;;;3.30;99.90;;;;;;5120114;27;20956;-75
2021/01/06 00:29:15;;;;;;;46.40;36.27;;;3.30;99.90;;;;;;5125930;27;20462;-75
2021/01/06 00:31:44;;;;;;;43.97;35.90;;;3.30;99.90;;;;;;5135298;27;20456;-76
2021/01/06 00:34:11;;;;;;;53.20;36.80;;;3.30;99.90;;;;;;5125830;27;20456;-76
2021/01/06 00:36:38;;;;;;;52.97;36.53;;;3.40;99.90;;;;;;5121471;27;20452;-76
2021/01/06 00:39:06;;;;;;;41.83;35.90;;;3.40;99.90;;;;;;5119216;27;20488;-75
2021/01/06 00:41:35;;;;;;;48.33;36.03;;;3.50;99.90;;;;;;5119929;27;20480;-76
2021/01/06 00:44:03;;;;;;;45.00;36.67;;;3.50;99.90;;;;;;5119239;27;20461;-75
2021/01/06 00:46:32;;;;;;;43.10;37.50;;;3.50;99.90;;;;;;5125043;27;20502;-77
2021/01/06 00:49:00;;;;;;;43.33;36.37;;;3.40;99.90;;;;;;5124295;27;20486;-78
2021/01/06 00:51:27;;;;;;;49.87;37.43;;;3.40;99.90;;;;;;5124705;27;20464;-76
2021/01/06 00:53:55;;;;;;;46.17;39.17;;;3.50;99.90;;;;;;5117814;27;20678;-75
2021/01/06 00:56:28;;;;;;;49.23;39.43;;;3.60;99.90;;;;;;5122204;27;20570;-75
2021/01/06 00:58:58;;;;;;;50.20;37.27;;;3.60;99.90;;;;;;5119050;27;20537;-75
2021/01/06 01:01:27;;;;;;;48.50;38.10;;;3.60;99.90;;;;;;5120805;27;20464;-75
2021/01/06 01:03:54;;;;;;;50.07;39.20;;;3.50;99.90;;;;;;5124356;27;20500;-74
2021/01/06 01:06:26;;;;;;;53.10;39.40;;;3.60;99.90;;;;;;5121591;27;20460;-75
2021/01/06 01:08:52;;;;;;;49.27;39.17;;;3.60;99.90;;;;;;5121083;28;20709;-75
2021/01/06 01:11:21;;;;;;;47.20;38.50;;;3.50;99.90;;;;;;5118554;28;20460;-76
2021/01/06 01:13:49;;;;;;;45.70;36.80;;;3.50;99.90;;;;;;5122492;28;20938;-75
2021/01/06 01:16:15;;;;;;;55.93;39.33;;;3.60;99.90;;;;;;5125634;27;20484;-75
2021/01/06 01:18:42;;;;;;;46.27;37.17;;;3.60;99.90;;;;;;5127782;28;20554;-75
2021/01/06 01:21:08;;;;;;;46.23;37.73;;;3.60;99.90;;;;;;5120581;28;20460;-75
2021/01/06 01:23:34;;;;;;;48.10;37.10;;;3.60;99.90;;;;;;5119544;28;20456;-76
2021/01/06 01:26:01;;;;;;;42.63;37.20;;;3.60;99.90;;;;;;5119592;28;20453;-76
2021/01/06 01:28:29;;;;;;;46.87;37.20;;;3.60;99.90;;;;;;5125030;28;20496;-75
2021/01/06 01:30:57;;;;;;;41.80;36.57;;;3.60;99.90;;;;;;5116103;27;20468;-75
2021/01/06 01:33:25;;;;;;;43.27;35.90;;;3.50;99.90;;;;;;5121098;28;20461;-76
2021/01/06 01:35:53;;;;;;;39.73;35.60;;;3.60;99.90;;;;;;5116103;28;20457;-75
2021/01/06 01:38:21;;;;;;;52.17;34.67;;;3.70;99.90;;;;;;5120959;28;20755;-75
2021/01/06 01:40:55;;;;;;;42.60;34.83;;;3.60;99.90;;;;;;5119010;28;20804;-75
2021/01/06 01:43:22;;;;;;;37.83;33.77;;;3.60;99.90;;;;;;5120767;28;20452;-76
2021/01/06 01:46:34;;;;;;;45.63;36.57;;;3.60;99.90;;;;;;5121239;27;20469;-75
2021/01/06 01:49:03;;;;;;;46.80;35.90;;;3.60;99.90;;;;;;5119787;27;20452;-75
2021/01/06 01:51:41;;;;;;;41.77;34.60;;;3.60;99.90;;;;;;5126021;27;20529;-76
2021/01/06 01:54:10;;;;;;;43.30;35.20;;;3.60;99.90;;;;;;5126420;27;20536;-76
2021/01/06 01:56:43;;;;;;;41.87;36.00;;;3.60;99.90;;;;;;5125913;27;20467;-75
2021/01/06 01:59:16;;;;;;;46.00;36.27;;;3.60;99.90;;;;;;5124273;27;20490;-75
2021/01/06 02:01:47;;;;;;;35.43;31.70;;;3.60;99.90;;;;;;5125112;27;20456;-75
2021/01/06 02:04:24;;;;;;;42.80;34.90;;;3.70;99.90;;;;;;5121349;27;20476;-75
2021/01/06 02:06:57;;;;;;;38.63;33.63;;;3.70;99.90;;;;;;5120608;27;20478;-75
2021/01/06 02:09:30;;;;;;;40.60;32.60;;;3.60;99.90;;;;;;5128009;27;20460;-74
2021/01/06 02:12:09;;;;;;;39.40;34.40;;;3.60;99.90;;;;;;5119081;27;20473;-75
2021/01/06 02:14:41;;;;;;;36.93;33.23;;;3.60;99.90;;;;;;5122754;27;20504;-76
2021/01/06 02:17:11;;;;;;;38.70;33.17;;;3.60;99.90;;;;;;5128841;27;20471;-75
2021/01/06 02:19:41;;;;;;;35.87;32.10;;;3.60;99.90;;;;;;5123343;27;20463;-75
2021/01/06 02:22:11;;;;;;;34.37;30.70;;;3.60;99.90;;;;;;5120789;27;20541;-75
2021/01/06 02:24:38;;;;;;;34.93;31.33;;;3.50;99.90;;;;;;5118625;27;20471;-75
2021/01/06 02:27:05;;;;;;;33.47;29.80;;;3.60;99.90;;;;;;5127986;27;20843;-76
2021/01/06 02:29:33;;;;;;;36.33;30.43;;;3.60;99.90;;;;;;5126676;27;20958;-75
2021/01/06 02:32:02;;;;;;;35.53;31.73;;;3.60;99.90;;;;;;5124682;27;20456;-75
2021/01/06 02:34:28;;;;;;;35.57;30.50;;;3.60;99.90;;;;;;5126053;27;20552;-75
2021/01/06 02:36:55;;;;;;;35.87;30.37;;;3.60;99.90;;;;;;5122451;27;20449;-75
2021/01/06 02:39:23;;;;;;;34.77;30.53;;;3.50;99.90;;;;;;5120812;27;20492;-76
2021/01/06 02:41:49;;;;;;;33.77;30.20;;;3.50;99.90;;;;;;5126446;27;20993;-75
2021/01/06 02:44:17;;;;;;;33.27;30.10;;;3.60;99.90;;;;;;5124625;27;20826;-75
2021/01/06 02:46:45;;;;;;;33.60;29.90;;;3.60;99.90;;;;;;5121432;27;20452;-76
2021/01/06 02:49:14;;;;;;;32.27;28.83;;;3.60;99.90;;;;;;5123339;27;20461;-75
2021/01/06 02:51:46;;;;;;;30.57;27.30;;;3.60;99.90;;;;;;5123905;27;20460;-75
2021/01/06 02:54:18;;;;;;;31.47;28.50;;;3.50;99.90;;;;;;5119145;27;20497;-75
2021/01/06 02:56:47;;;;;;;33.70;28.50;;;3.50;99.90;;;;;;5122753;27;20456;-74
2021/01/06 02:59:14;;;;;;;32.87;29.37;;;3.50;99.90;;;;;;5120431;27;20484;-74
2021/01/06 03:01:44;;;;;;;32.10;28.80;;;3.50;99.90;;;;;;5126331;27;20459;-74
2021/01/06 03:04:15;;;;;;;32.00;28.47;;;3.50;99.90;;;;;;5123855;27;20495;-75
2021/01/06 03:06:44;;;;;;;31.77;28.40;;;3.50;99.90;;;;;;5117138;27;20457;-74
2021/01/06 03:09:25;;;;;;;34.37;29.83;;;3.50;99.90;;;;;;5125254;27;20475;-75
2021/01/06 03:11:53;;;;;;;43.73;29.87;;;3.60;99.90;;;;;;5123882;27;21165;-74
2021/01/06 03:14:19;;;;;;;33.83;30.33;;;3.60;99.90;;;;;;5123528;27;20456;-74
2021/01/06 03:16:46;;;;;;;32.30;29.07;;;3.60;99.90;;;;;;5120688;27;20464;-74
2021/01/06 03:19:14;;;;;;;34.60;30.40;;;3.50;99.90;;;;;;5119179;27;20487;-74
2021/01/06 03:21:42;;;;;;;32.10;28.87;;;3.50;99.90;;;;;;5121918;27;20545;-74
2021/01/06 03:24:11;;;;;;;35.83;31.93;;;3.60;99.90;;;;;;5121601;27;20461;-75
2021/01/06 03:26:39;;;;;;;33.23;29.90;;;3.60;99.90;;;;;;5125505;27;20460;-75
2021/01/06 03:29:07;;;;;;;39.03;31.73;;;3.60;99.90;;;;;;5123155;27;20895;-75
2021/01/06 03:31:39;;;;;;;33.03;29.93;;;3.50;99.90;;;;;;5115409;27;20467;-75
2021/01/06 03:34:14;;;;;;;33.13;29.63;;;3.60;99.90;;;;;;5123151;27;20468;-76
2021/01/06 03:36:44;;;;;;;34.20;30.50;;;3.60;99.90;;;;;;5119207;27;20487;-75
2021/01/06 03:39:17;;;;;;;34.50;30.90;;;3.60;99.90;;;;;;5120291;27;20540;-75
2021/01/06 03:41:44;;;;;;;32.60;29.10;;;3.70;99.90;;;;;;5128140;27;21010;-75
2021/01/06 03:44:14;;;;;;;32.83;29.40;;;3.60;99.90;;;;;;5123038;27;20457;-75
2021/01/06 03:46:46;;;;;;;33.97;30.50;;;3.70;99.90;;;;;;5119987;27;20461;-77
2021/01/06 03:49:25;;;;;;;34.70;31.00;;;3.60;99.90;;;;;;5120041;27;20487;-77
2021/01/06 03:51:59;;;;;;;32.97;29.47;;;3.50;99.90;;;;;;5117251;27;20851;-78
2021/01/06 03:54:34;;;;;;;33.03;29.93;;;3.60;99.90;;;;;;5120438;27;20463;-77
2021/01/06 03:57:03;;;;;;;32.93;29.73;;;3.60;99.90;;;;;;5118934;27;20878;-78
2021/01/06 03:59:33;;;;;;;33.43;29.83;;;3.60;99.90;;;;;;5121574;27;20516;-78
2021/01/06 04:02:07;;;;;;;33.47;29.90;;;3.60;99.90;;;;;;5124152;27;20456;-77
2021/01/06 04:04:38;;;;;;;31.30;27.60;;;3.50;99.90;;;;;;5116369;27;20464;-76
2021/01/06 04:07:09;;;;;;;34.63;31.03;;;3.60;99.90;;;;;;5122465;27;20864;-75
2021/01/06 04:09:40;;;;;;;33.07;29.57;;;3.60;99.90;;;;;;5124225;27;20461;-75
2021/01/06 04:12:09;;;;;;;36.50;31.40;;;3.60;99.90;;;;;;5126127;27;20474;-78
2021/01/06 04:14:39;;;;;;;34.07;30.37;;;3.60;99.90;;;;;;5122947;27;20523;-76
2021/01/06 04:17:18;;;;;;;32.43;29.03;;;3.60;99.90;;;;;;5122808;27;20492;-76
2021/01/06 04:19:48;;;;;;;39.33;30.57;;;3.60;99.90;;;;;;5118251;27;20468;-75
2021/01/06 04:22:16;;;;;;;33.70;29.83;;;3.60;99.90;;;;;;5124855;27;20455;-75
2021/01/06 04:24:43;;;;;;;36.00;32.03;;;3.70;99.90;;;;;;5121819;27;20460;-76
2021/01/06 04:27:16;;;;;;;34.07;30.37;;;3.70;99.90;;;;;;5123278;27;20460;-76
2021/01/06 04:29:44;;;;;;;34.43;28.80;;;3.70;99.90;;;;;;5118568;27;20460;-76
2021/01/06 04:32:11;;;;;;;38.93;31.57;;;3.70;99.90;;;;;;5120852;27;20453;-75
2021/01/06 04:34:39;;;;;;;36.73;30.70;;;3.70;99.90;;;;;;5121966;27;20456;-75
2021/01/06 04:37:05;;;;;;;31.80;28.40;;;3.80;99.90;;;;;;5115633;27;20461;-75
2021/01/06 04:39:32;;;;;;;33.80;29.70;;;3.80;99.90;;;;;;5129903;27;20484;-75
2021/01/06 04:42:05;;;;;;;33.70;28.53;;;3.80;99.90;;;;;;5121199;27;20845;-76
2021/01/06 04:44:57;;;;;;;33.83;30.10;;;3.70;99.90;;;;;;5123726;27;20459;-74
2021/01/06 04:47:56;;;;;;;33.97;30.17;;;3.70;99.90;;;;;;5121083;27;20851;-74
2021/01/06 04:50:52;;;;;;;33.43;29.83;;;3.60;99.90;;;;;;5117516;27;20457;-74
2021/01/06 04:53:29;;;;;;;31.83;28.73;;;3.60;99.90;;;;;;5113196;28;20457;-76
2021/01/06 04:56:07;;;;;;;33.50;29.17;;;3.60;99.90;;;;;;5123042;27;20513;-74
2021/01/06 04:58:44;;;;;;;32.17;28.77;;;3.70;99.90;;;;;;5124361;27;20859;-74
2021/01/06 05:01:31;;;;;;;33.13;29.67;;;3.60;99.90;;;;;;5125959;27;20467;-74
2021/01/06 05:04:10;;;;;;;33.57;30.07;;;3.70;99.90;;;;;;5122175;27;20453;-75
2021/01/06 05:06:47;;;;;;;32.80;29.23;;;3.70;99.90;;;;;;5123652;27;21058;-76
2021/01/06 05:09:20;;;;;;;35.53;31.70;;;3.70;99.90;;;;;;5122698;28;20456;-75
2021/01/06 05:12:02;;;;;;;34.43;30.93;;;3.60;99.90;;;;;;5122524;28;20861;-74
2021/01/06 05:14:33;;;;;;;32.93;29.53;;;3.70;99.90;;;;;;5117868;27;21571;-74
2021/01/06 05:17:01;;;;;;;37.20;30.07;;;3.60;99.90;;;;;;5120951;27;20463;-76
2021/01/06 05:19:31;;;;;;;36.13;30.73;;;3.70;99.90;;;;;;5118227;28;20567;-75
2021/01/06 05:21:58;;;;;;;37.53;31.20;;;3.80;99.90;;;;;;5125022;27;20469;-76
2021/01/06 05:24:30;;;;;;;33.20;29.27;;;3.80;99.90;;;;;;5127580;27;20546;-75
2021/01/06 05:27:10;;;;;;;40.20;32.57;;;3.90;99.90;;;;;;5129676;27;20520;-77
2021/01/06 05:29:37;;;;;;;38.90;32.03;;;3.80;99.90;;;;;;5124754;27;20468;-75
2021/01/06 05:32:05;;;;;;;39.17;32.70;;;3.90;99.90;;;;;;5124465;27;20460;-75
2021/01/06 05:34:35;;;;;;;41.17;31.37;;;3.80;99.90;;;;;;5124538;27;20921;-78
2021/01/06 05:37:02;;;;;;;34.80;30.20;;;3.80;99.90;;;;;;5127722;27;20456;-78
2021/01/06 05:39:30;;;;;;;35.00;31.27;;;3.80;99.90;;;;;;5123596;27;20484;-79
2021/01/06 05:42:05;;;;;;;36.50;31.97;;;3.70;99.90;;;;;;5130275;27;20483;-74
2021/01/06 05:44:32;;;;;;;36.80;30.93;;;3.70;99.90;;;;;;5130827;27;20954;-74
2021/01/06 05:46:59;;;;;;;34.80;31.20;;;3.70;99.90;;;;;;5124007;27;20464;-75
2021/01/06 05:49:31;;;;;;;33.73;30.13;;;3.70;99.90;;;;;;5121120;27;20464;-75
2021/01/06 05:52:01;;;;;;;37.23;32.23;;;3.70;99.90;;;;;;5120872;27;20464;-75
2021/01/06 05:54:39;;;;;;;34.47;30.87;;;3.60;99.90;;;;;;5118838;27;20460;-77
2021/01/06 05:57:14;;;;;;;35.27;30.83;;;3.60;99.90;;;;;;5127515;27;20467;-75
2021/01/06 06:00:00;;;;;;;36.97;31.00;;;3.70;99.90;;;;;;5125217;27;20864;-75
2021/01/06 06:02:35;;;;;;;37.00;30.33;;;3.80;99.90;;;;;;5099687;27;20452;-76
2021/01/06 06:05:19;;;;;;;32.37;29.07;;;3.70;99.90;;;;;;5119374;27;20456;-75
2021/01/06 06:08:02;;;;;;;37.80;31.90;;;3.60;99.90;;;;;;5122772;27;20475;-75
2021/01/06 06:10:53;;;;;;;35.23;30.40;;;3.60;99.90;;;;;;5120494;27;20459;-76
2021/01/06 06:13:50;;;;;;;42.80;32.57;;;3.70;99.90;;;;;;5119669;27;20550;-75
2021/01/06 06:16:45;;;;;;;35.00;29.87;;;3.70;99.90;;;;;;5069514;27;20475;-74
2021/01/06 06:19:27;;;;;;;36.50;30.80;;;3.70;99.90;;;;;;5121388;27;20496;-75
2021/01/06 06:22:07;;;;;;;36.93;31.50;;;3.60;99.90;;;;;;5120629;27;20460;-76
2021/01/06 06:24:40;;;;;;;36.03;32.13;;;3.70;99.90;;;;;;5124552;27;20954;-74
2021/01/06 06:27:42;;;;;;;35.67;31.90;;;3.70;99.90;;;;;;5123056;27;20464;-76
2021/01/06 06:30:37;;;;;;;38.57;32.63;;;3.60;99.90;;;;;;5130024;27;20504;-75
2021/01/06 06:33:16;;;;;;;37.13;30.83;;;3.60;99.90;;;;;;5068765;27;20459;-74
2021/01/06 06:35:49;;;;;;;37.07;30.17;;;3.60;99.90;;;;;;5122446;27;20482;-77
2021/01/06 06:38:18;;;;;;;34.60;30.47;;;3.60;99.90;;;;;;5118885;27;20537;-75
2021/01/06 06:40:51;;;;;;;39.23;32.00;;;3.60;99.90;;;;;;5119512;27;20491;-74
2021/01/06 06:43:27;;;;;;;37.70;32.63;;;3.50;99.90;;;;;;5122605;27;20530;-75
2021/01/06 06:46:11;;;;;;;37.37;32.67;;;3.50;99.90;;;;;;5122635;27;20472;-78
2021/01/06 06:48:43;;;;;;;43.83;33.97;;;3.50;99.90;;;;;;5120069;27;21020;-76
2021/01/06 06:51:16;;;;;;;36.17;32.30;;;3.50;99.90;;;;;;5126716;27;20452;-74
2021/01/06 06:53:53;;;;;;;37.23;33.10;;;3.50;99.90;;;;;;5123998;27;20452;-75
2021/01/06 06:56:29;;;;;;;40.83;34.50;;;3.60;99.90;;;;;;5123393;27;20644;-74
2021/01/06 06:58:59;;;;;;;41.33;34.43;;;3.60;99.90;;;;;;5118162;27;20488;-76
2021/01/06 07:01:33;;;;;;;37.87;33.83;;;3.50;99.90;;;;;;5119952;27;20502;-76
2021/01/06 07:04:03;;;;;;;41.87;33.33;;;3.60;99.90;;;;;;5118708;27;21133;-73
2021/01/06 07:06:31;;;;;;;45.27;33.23;;;3.50;99.90;;;;;;5116911;27;20521;-75
2021/01/06 07:09:00;;;;;;;40.93;34.50;;;3.50;99.90;;;;;;5116097;27;20824;-77
2021/01/06 07:11:36;;;;;;;40.03;33.90;;;3.50;99.90;;;;;;5127296;27;20452;-76
2021/01/06 07:14:18;;;;;;;48.10;36.17;;;3.50;99.90;;;;;;5121859;27;20456;-75
2021/01/06 07:17:09;;;;;;;48.03;35.87;;;3.50;99.90;;;;;;5122159;27;20963;-74
2021/01/06 07:19:53;;;;;;;45.80;33.87;;;3.40;99.90;;;;;;5120797;27;20497;-76
2021/01/06 07:22:29;;;;;;;43.50;36.90;;;3.40;99.90;;;;;;5116097;27;20456;-75
2021/01/06 07:25:01;;;;;;;45.43;36.60;;;3.50;99.90;;;;;;5125282;27;20543;-76
2021/01/06 07:27:30;;;;;;;48.67;37.13;;;3.40;99.90;;;;;;5123884;27;20649;-74
2021/01/06 07:29:57;;;;;;;46.50;36.90;;;3.40;99.90;;;;;;5120188;27;20456;-76
2021/01/06 07:32:35;;;;;;;46.20;37.10;;;3.40;99.90;;;;;;5122084;27;20467;-75
2021/01/06 07:35:10;;;;;;;46.30;34.83;;;3.40;99.90;;;;;;5123548;27;20796;-74
2021/01/06 07:37:41;;;;;;;45.40;35.17;;;3.30;99.90;;;;;;5121817;27;20511;-77
2021/01/06 07:40:22;;;;;;;45.00;34.40;;;3.40;99.90;;;;;;5120183;27;20583;-75
2021/01/06 07:42:52;;;;;;;48.33;37.20;;;3.40;99.90;;;;;;5123575;27;20476;-75
2021/01/06 07:45:34;;;;;;;46.87;37.53;;;3.40;99.90;;;;;;5118987;27;20997;-76
2021/01/06 07:48:38;;;;;;;49.50;36.10;;;3.50;99.90;;;;;;5123428;27;20467;-76
2021/01/06 07:51:13;;;;;;;48.23;36.20;;;3.50;99.90;;;;;;5121927;27;20464;-77
2021/01/06 07:53:44;;;;;;;42.43;35.10;;;3.50;99.90;;;;;;5121660;27;20463;-77
2021/01/06 07:56:22;;;;;;;46.10;36.00;;;3.50;99.90;;;;;;5115279;27;20457;-75
2021/01/06 07:58:54;;;;;;;42.60;36.50;;;3.50;99.90;;;;;;5123461;27;20481;-77
2021/01/06 08:01:34;;;;;;;48.30;37.90;;;3.50;99.90;;;;;;5132014;27;20452;-75
2021/01/06 08:04:09;;;;;;;48.13;35.43;;;3.60;99.90;;;;;;5115152;27;20461;-78
2021/01/06 08:06:42;;;;;;;45.13;36.53;;;3.50;99.90;;;;;;5121174;27;21107;-77
2021/01/06 08:09:09;;;;;;;50.53;36.90;;;3.60;99.90;;;;;;5123910;27;20457;-77
2021/01/06 08:11:46;;;;;;;42.50;36.37;;;3.60;99.90;;;;;;5117588;27;20448;-77
2021/01/06 08:14:22;;;;;;;40.80;35.40;;;3.50;99.90;;;;;;5119396;27;20501;-75
2021/01/06 08:16:53;;;;;;;44.47;38.03;;;3.50;99.90;;;;;;5121973;27;20533;-78
2021/01/06 08:19:23;;;;;;;45.43;36.90;;;3.60;99.90;;;;;;5121529;27;20521;-75
2021/01/06 08:21:57;;;;;;;47.23;38.27;;;3.60;99.90;;;;;;5115211;27;20456;-76
2021/01/06 08:24:31;;;;;;;42.40;35.10;;;3.60;99.90;;;;;;5117406;27;20456;-77
2021/01/06 08:27:00;;;;;;;43.60;35.97;;;3.60;99.90;;;;;;5119671;27;20534;-76
2021/01/06 08:29:29;;;;;;;41.77;35.07;;;3.50;99.90;;;;;;5115802;27;20465;-78
2021/01/06 08:31:59;;;;;;;46.13;35.90;;;3.50;99.90;;;;;;5119315;27;20454;-76
2021/01/06 08:34:30;;;;;;;42.40;36.67;;;3.50;99.90;;;;;;5119393;27;21104;-75
2021/01/06 08:37:03;;;;;;;45.07;36.13;;;3.40;99.90;;;;;;5114938;27;20514;-76
2021/01/06 08:39:32;;;;;;;43.07;35.53;;;3.40;99.90;;;;;;5122209;27;20483;-76
2021/01/06 08:42:12;;;;;;;46.17;34.73;;;3.30;99.90;;;;;;5119719;27;20534;-77
2021/01/06 08:44:43;;;;;;;49.00;36.20;;;3.20;99.90;;;;;;5115214;27;20514;-77
2021/01/06 08:47:11;;;;;;;46.10;35.97;;;3.20;99.90;;;;;;5115447;27;20546;-77
2021/01/06 08:49:40;;;;;;;45.33;34.23;;;3.10;99.90;;;;;;5118038;27;20521;-76
2021/01/06 08:52:22;;;;;;;49.00;35.20;;;3.20;99.90;;;;;;5121205;27;20461;-77
2021/01/06 08:54:59;;;;;;;47.70;36.27;;;3.10;99.90;;;;;;5122457;27;20469;-74
2021/01/06 08:57:30;;;;;;;42.97;33.23;;;3.20;99.90;;;;;;5125933;27;20480;-75
2021/01/06 08:59:58;;;;;;;42.30;35.63;;;3.20;99.90;;;;;;5117267;27;20495;-75
2021/01/06 09:02:33;;;;;;;39.13;32.80;;;3.10;99.90;;;;;;5119880;27;20806;-78
2021/01/06 09:04:59;;;;;;;43.50;33.17;;;3.10;99.90;;;;;;5117594;27;20457;-76
2021/01/06 09:07:30;;;;;;;41.00;34.00;;;3.10;99.90;;;;;;5120825;27;20463;-76
2021/01/06 09:10:12;;;;;;;40.13;33.63;;;3.10;99.90;;;;;;5120457;28;20456;-76
2021/01/06 09:12:56;;;;;;;37.67;33.40;;;3.10;99.90;;;;;;5121690;28;20501;-77
2021/01/06 09:15:31;;;;;;;43.27;33.60;;;3.00;99.90;;;;;;5128974;27;20463;-77
2021/01/06 09:18:05;;;;;;;47.17;33.50;;;3.00;99.90;;;;;;5119311;28;20464;-74
2021/01/06 09:20:40;;;;;;;39.30;35.00;;;3.00;99.90;;;;;;5114070;28;21034;-75
2021/01/06 09:23:13;;;;;;;35.90;30.30;;;3.00;99.90;;;;;;5119146;28;20822;-75
2021/01/06 09:25:39;;;;;;;35.87;30.80;;;3.00;99.90;;;;;;5117551;28;20461;-76
2021/01/06 09:28:10;;;;;;;36.27;32.23;;;3.00;99.90;;;;;;5120288;28;20457;-74
2021/01/06 09:30:38;;;;;;;40.17;31.73;;;3.00;99.90;;;;;;5120603;27;20463;-76
2021/01/06 09:33:13;;;;;;;46.17;32.80;;;3.10;99.90;;;;;;5117945;28;20549;-75
2021/01/06 09:35:40;;;;;;;38.00;31.87;;;3.10;99.90;;;;;;5114588;28;20467;-77
2021/01/06 09:38:20;;;;;;;36.50;30.80;;;3.20;99.90;;;;;;5116374;28;20476;-75
2021/01/06 09:40:47;;;;;;;40.43;32.37;;;3.30;99.90;;;;;;5117814;28;20680;-77
2021/01/06 09:43:23;;;;;;;41.50;32.77;;;3.30;99.90;;;;;;5120752;28;20499;-77
2021/01/06 09:45:50;;;;;;;44.37;30.97;;;3.40;99.90;;;;;;5120475;27;20509;-76
2021/01/06 09:48:18;;;;;;;41.83;33.33;;;3.40;99.90;;;;;;5122574;28;21064;-77
2021/01/06 09:50:49;;;;;;;48.67;31.50;;;3.50;99.90;;;;;;5113735;28;20513;-77
2021/01/06 09:53:19;;;;;;;40.00;31.63;;;3.60;99.90;;;;;;5120107;28;20564;-75
2021/01/06 09:55:48;;;;;;;45.20;33.87;;;3.60;99.90;;;;;;5124277;28;20873;-75
2021/01/06 09:58:25;;;;;;;43.60;33.77;;;3.60;99.90;;;;;;5119917;28;20506;-79
2021/01/06 10:00:57;;;;;;;49.00;35.33;;;3.70;99.90;;;;;;5126932;27;20448;-75
2021/01/06 10:03:29;;;;;;;39.77;30.57;;;3.80;99.90;;;;;;5119002;28;21106;-77
2021/01/06 10:06:18;;;;;;;37.47;32.20;;;3.80;99.90;;;;;;5120625;28;20456;-79
2021/01/06 10:08:52;;;;;;;44.03;33.47;;;3.80;99.90;;;;;;5120483;27;20958;-77
2021/01/06 10:11:35;;;;;;;38.53;29.47;;;3.80;99.90;;;;;;5119653;27;20467;-76
2021/01/06 10:14:27;;;;;;;41.80;31.63;;;3.90;99.90;;;;;;5126918;27;20448;-76
2021/01/06 10:16:59;;;;;;;42.57;31.53;;;4.00;99.90;;;;;;5122465;27;20543;-76
2021/01/06 10:19:38;;;;;;;44.13;34.00;;;3.90;99.90;;;;;;5121981;27;20537;-77
2021/01/06 10:22:14;;;;;;;41.57;33.83;;;4.00;99.90;;;;;;5120256;27;20469;-79
2021/01/06 10:24:54;;;;;;;43.43;31.87;;;4.00;99.90;;;;;;5121288;27;20455;-74
2021/01/06 10:27:28;;;;;;;41.23;31.17;;;4.00;99.90;;;;;;5114298;27;20465;-76
2021/01/06 10:29:58;;;;;;;41.27;29.80;;;4.00;99.90;;;;;;5123770;27;20497;-75
2021/01/06 10:32:49;;;;;;;39.93;32.60;;;3.90;99.90;;;;;;5121729;27;20468;-77
2021/01/06 10:35:36;;;;;;;41.30;32.00;;;3.90;99.90;;;;;;5122095;27;20460;-78
2021/01/06 10:38:24;;;;;;;38.00;31.70;;;3.90;99.90;;;;;;5114660;27;20517;-77
2021/01/06 10:40:52;;;;;;;41.00;27.43;;;4.00;99.90;;;;;;5121264;27;20728;-79
2021/01/06 10:43:35;;;;;;;37.30;30.90;;;4.00;99.90;;;;;;5124365;27;20485;-77
2021/01/06 10:46:32;;;;;;;37.40;31.03;;;4.00;99.90;;;;;;5120124;27;20461;-76
2021/01/06 10:48:58;;;;;;;38.23;29.80;;;3.90;99.90;;;;;;5118222;27;20537;-78
2021/01/06 10:52:14;;;;;;;38.27;32.80;;;4.00;99.90;;;;;;5120250;27;20981;-77
2021/01/06 10:54:45;;;;;;;38.03;29.93;;;4.10;99.90;;;;;;5117004;27;20501;-75
2021/01/06 10:57:23;;;;;;;39.90;32.07;;;4.20;99.90;;;;;;5119172;27;20470;-78
2021/01/06 11:00:16;;;;;;;38.07;30.53;;;4.30;99.90;;;;;;5122232;27;20487;-78
2021/01/06 11:02:58;;;;;;;43.33;31.67;;;4.40;99.90;;;;;;5116511;27;20952;-79
2021/01/06 11:05:29;;;;;;;43.27;32.37;;;4.50;99.90;;;;;;5123939;27;20962;-78
2021/01/06 11:08:28;;;;;;;45.23;34.10;;;4.40;99.90;;;;;;5119789;27;20491;-78
2021/01/06 11:11:13;;;;;;;45.20;33.70;;;4.50;99.90;;;;;;5118338;27;20453;-79
2021/01/06 11:13:59;;;;;;;37.97;30.80;;;4.60;99.90;;;;;;5117469;27;20848;-80
2021/01/06 11:16:28;;;;;;;41.83;33.00;;;4.70;99.90;;;;;;5124941;27;20468;-75
2021/01/06 11:18:56;;;;;;;39.57;31.50;;;4.60;99.90;;;;;;5122101;27;20484;-76
2021/01/06 11:21:39;;;;;;;36.50;30.77;;;4.50;99.90;;;;;;5124018;27;21201;-77
2021/01/06 11:24:41;;;;;;;37.73;30.53;;;4.50;99.90;;;;;;5117572;27;20476;-77
2021/01/06 11:27:43;;;;;;;36.10;29.60;;;4.50;99.90;;;;;;5117558;27;20831;-77
2021/01/06 11:30:26;;;;;;;36.07;29.73;;;4.40;99.90;;;;;;5122354;27;20994;-76
2021/01/06 11:33:20;;;;;;;36.63;30.00;;;4.40;99.90;;;;;;5119416;27;20456;-75
2021/01/06 11:35:51;;;;;;;37.53;29.03;;;4.40;99.90;;;;;;5120894;27;20468;-79
2021/01/06 11:38:48;;;;;;;34.00;29.50;;;4.40;99.90;;;;;;5121470;27;20489;-77
2021/01/06 11:41:19;;;;;;;34.57;27.87;;;4.30;99.90;;;;;;5119994;27;20504;-76
2021/01/06 11:43:54;;;;;;;29.67;26.13;;;4.30;99.90;;;;;;5119520;27;20448;-79
2021/01/06 11:46:52;;;;;;;30.47;26.00;;;4.20;99.90;;;;;;5120554;27;20453;-78
2021/01/06 11:49:28;;;;;;;35.90;26.93;;;4.10;99.90;;;;;;5118310;27;20465;-78
2021/01/06 11:52:27;;;;;;;31.53;24.90;;;4.20;99.90;;;;;;5119810;27;20448;-79
2021/01/06 11:54:58;;;;;;;24.90;22.50;;;4.10;99.90;;;;;;5126454;27;20957;-78
2021/01/06 11:57:35;;;;;;;30.60;25.90;;;4.00;99.90;;;;;;5118979;27;20460;-79
2021/01/06 12:00:49;;;;;;;42.20;28.67;;;3.90;99.90;;;;;;5122955;27;20487;-78
2021/01/06 12:03:24;;;;;;;35.30;30.10;;;3.90;99.90;;;;;;5105973;27;20452;-78
2021/01/06 12:06:03;;;;;;;39.40;29.33;;;4.00;99.90;;;;;;5116624;27;20459;-79
2021/01/06 12:08:46;;;;;;;35.33;30.10;;;4.10;99.90;;;;;;5118185;27;20455;-80
2021/01/06 12:11:20;;;;;;;36.37;28.57;;;4.20;99.90;;;;;;5123162;27;20842;-78
2021/01/06 12:13:53;;;;;;;33.43;27.90;;;4.30;99.90;;;;;;5123096;27;20461;-75
2021/01/06 12:16:23;;;;;;;29.47;26.37;;;4.30;99.90;;;;;;5129121;27;20456;-75
2021/01/06 12:19:07;;;;;;;28.03;25.07;;;4.20;99.90;;;;;;5121141;27;20480;-76
2021/01/06 12:21:53;;;;;;;30.43;26.20;;;4.30;99.90;;;;;;5118106;27;21004;-75
2021/01/06 12:24:43;;;;;;;31.50;26.77;;;4.20;99.90;;;;;;5115800;27;20484;-81
2021/01/06 12:27:34;;;;;;;35.30;28.57;;;4.30;99.90;;;;;;5118972;27;20456;-77
2021/01/06 12:30:21;;;;;;;27.20;24.30;;;4.20;99.90;;;;;;5118614;27;21020;-76
2021/01/06 12:32:56;;;;;;;33.47;27.40;;;4.10;99.90;;;;;;5121521;27;20461;-77
2021/01/06 12:35:28;;;;;;;29.53;26.37;;;4.10;99.90;;;;;;5121283;27;20455;-79
2021/01/06 12:38:02;;;;;;;28.33;25.60;;;4.10;99.90;;;;;;5121879;27;20530;-78
2021/01/06 12:40:30;;;;;;;35.27;28.53;;;4.10;99.90;;;;;;5122532;27;20484;-77
2021/01/06 12:42:59;;;;;;;36.10;28.40;;;4.10;99.90;;;;;;5118354;27;20821;-77
2021/01/06 12:45:30;;;;;;;31.87;27.40;;;4.20;99.90;;;;;;5125993;27;20484;-78
2021/01/06 12:48:06;;;;;;;30.50;25.83;;;4.40;99.90;;;;;;5122953;27;20456;-77
2021/01/06 12:50:42;;;;;;;33.40;28.13;;;4.30;99.90;;;;;;5118956;27;20456;-76
2021/01/06 12:53:17;;;;;;;36.10;29.50;;;4.30;99.90;;;;;;5121501;27;20563;-76
2021/01/06 12:55:55;;;;;;;31.40;27.00;;;4.30;99.90;;;;;;5121009;27;20460;-78
2021/01/06 12:58:28;;;;;;;28.50;25.60;;;4.30;99.90;;;;;;5123217;27;20490;-75
2021/01/06 13:01:02;;;;;;;28.27;25.17;;;4.10;99.90;;;;;;5117300;27;20488;-77
2021/01/06 13:03:46;;;;;;;28.50;25.40;;;4.10;99.90;;;;;;5121355;27;20539;-80
2021/01/06 13:06:18;;;;;;;30.00;26.23;;;4.10;99.90;;;;;;5119830;28;20457;-77
2021/01/06 13:08:54;;;;;;;29.50;26.37;;;4.00;99.90;;;;;;5115432;27;20460;-77
2021/01/06 13:11:29;;;;;;;32.33;26.17;;;4.00;99.90;;;;;;5115044;28;20951;-78
2021/01/06 13:14:13;;;;;;;27.43;24.47;;;4.10;99.90;;;;;;5125262;28;20499;-77